Time;durP1;ratioP1;P1;durP2;ratioP2;P2;SDS_P1;SDS_P2;PMS_P1;PMS_P2;Temp;Humidity;BMP_temperature;BMP_pressure;BME280_temperature;BME280_humidity;BME280_pressure;Samples;Min_cycle;Max_cycle;Signal;HPM_P1;HPM_P2
2022/05/14 00:01:05;;;;;;;5.70;1.33;;;12.80;99.90;;;;;;4788837;30;20048;-89
2022/05/14 00:03:33;;;;;;;6.22;1.17;;;12.60;99.90;;;;;;4762913;29;20051;-89
2022/05/14 00:06:02;;;;;;;3.63;1.10;;;12.90;99.90;;;;;;4773605;29;20052;-90
2022/05/14 00:08:29;;;;;;;1.98;1.00;;;12.60;99.90;;;;;;4793856;29;20137;-89
2022/05/14 00:13:40;;;;;;;4.55;1.02;;;12.60;99.90;;;;;;4779960;30;20055;-90
2022/05/14 00:16:07;;;;;;;10.05;2.30;;;12.60;99.90;;;;;;4788835;30;20059;-89
2022/05/14 00:18:35;;;;;;;3.70;0.90;;;12.90;99.90;;;;;;4795944;29;20047;-89
2022/05/14 00:21:00;;;;;;;3.28;1.30;;;12.60;99.90;;;;;;4788602;30;20055;-90
2022/05/14 00:23:27;;;;;;;6.20;0.80;;;12.60;99.90;;;;;;4796013;29;20093;-89
2022/05/14 00:25:53;;;;;;;3.78;1.35;;;12.50;99.90;;;;;;4772685;30;20100;-89
2022/05/14 00:28:19;;;;;;;4.03;0.95;;;12.40;99.90;;;;;;4779920;30;20047;-89
2022/05/14 00:30:48;;;;;;;3.88;0.80;;;12.40;99.90;;;;;;4773117;30;20619;-88
2022/05/14 00:33:18;;;;;;;2.45;0.80;;;12.40;99.90;;;;;;4791971;29;20048;-88
2022/05/14 00:35:51;;;;;;;4.75;0.82;;;12.30;99.90;;;;;;4793376;29;20138;-91
2022/05/14 00:38:17;;;;;;;3.03;0.75;;;12.40;99.90;;;;;;4772413;30;20142;-89
2022/05/14 00:40:53;;;;;;;2.25;0.68;;;12.30;99.90;;;;;;4772322;30;20196;-88
2022/05/14 00:43:19;;;;;;;5.72;0.90;;;12.30;99.90;;;;;;4788764;30;20051;-89
2022/05/14 00:45:58;;;;;;;5.22;1.20;;;12.30;99.90;;;;;;4788599;29;20065;-89
2022/05/14 00:48:31;;;;;;;3.95;1.13;;;12.30;99.90;;;;;;4791114;29;20052;-90
2022/05/14 00:50:58;;;;;;;6.68;1.20;;;12.30;99.90;;;;;;4778488;30;20516;-90
2022/05/14 00:53:45;;;;;;;6.10;0.90;;;12.40;99.90;;;;;;4790042;29;20076;-90
2022/05/14 00:56:22;;;;;;;8.98;1.17;;;12.30;99.90;;;;;;4788495;30;20093;-91
2022/05/14 00:59:01;;;;;;;7.40;2.55;;;12.30;99.90;;;;;;4777183;30;20493;-90
2022/05/14 01:01:27;;;;;;;7.53;1.40;;;12.30;99.90;;;;;;4771548;30;20063;-89
2022/05/14 01:03:52;;;;;;;6.18;1.25;;;12.60;99.90;;;;;;4771099;29;20552;-89
2022/05/14 01:06:20;;;;;;;5.10;1.40;;;12.40;99.90;;;;;;4773428;30;20058;-90
2022/05/14 01:08:50;;;;;;;10.15;2.08;;;12.30;99.90;;;;;;4787231;29;20063;-89
2022/05/14 01:11:16;;;;;;;2.65;0.80;;;12.40;99.90;;;;;;4771608;30;20158;-90
2022/05/14 01:13:42;;;;;;;4.93;0.90;;;12.40;99.90;;;;;;4757008;30;20055;-91
2022/05/14 01:16:08;;;;;;;2.53;0.98;;;12.30;99.90;;;;;;4787615;29;20061;-89
2022/05/14 01:18:38;;;;;;;6.13;1.10;;;12.20;99.90;;;;;;4787589;29;20116;-89
2022/05/14 01:21:21;;;;;;;4.30;1.20;;;12.10;99.90;;;;;;4777078;29;20054;-90
2022/05/14 01:26:36;;;;;;;3.80;0.90;;;12.30;99.90;;;;;;4779017;29;20054;-89
2022/05/14 01:29:09;;;;;;;2.90;0.95;;;12.60;99.90;;;;;;4788609;29;20059;-92
2022/05/14 01:31:38;;;;;;;3.05;0.70;;;12.20;99.90;;;;;;4788342;29;20140;-91
2022/05/14 01:34:08;;;;;;;3.30;1.00;;;12.20;99.90;;;;;;4771376;30;20548;-90
2022/05/14 01:36:35;;;;;;;4.55;1.23;;;12.30;99.90;;;;;;4787376;30;20047;-89
2022/05/14 01:39:01;;;;;;;7.82;1.20;;;12.20;99.90;;;;;;4788151;29;20405;-90
2022/05/14 01:41:27;;;;;;;6.90;1.75;;;12.20;99.90;;;;;;4771326;29;20148;-92
2022/05/14 01:43:53;;;;;;;5.07;1.65;;;12.20;99.90;;;;;;4794117;29;20493;-90
2022/05/14 01:46:19;;;;;;;8.15;1.25;;;12.30;99.90;;;;;;4787661;30;20123;-90
2022/05/14 01:48:46;;;;;;;6.20;1.20;;;12.20;99.90;;;;;;4794231;29;20055;-90
2022/05/14 01:51:12;;;;;;;5.57;1.45;;;12.20;99.90;;;;;;4768778;29;20058;-90
2022/05/14 01:53:39;;;;;;;3.03;0.82;;;11.80;99.90;;;;;;4758165;30;20450;-90
2022/05/14 01:56:05;;;;;;;5.13;1.20;;;12.20;99.90;;;;;;4771434;30;20078;-90
2022/05/14 01:58:36;;;;;;;3.13;0.90;;;12.20;99.90;;;;;;4772384;30;20055;-89
2022/05/14 02:01:16;;;;;;;12.43;1.85;;;12.20;99.90;;;;;;4771513;30;20059;-91
2022/05/14 02:03:44;;;;;;;10.80;1.58;;;12.20;99.90;;;;;;4787086;29;20058;-90
2022/05/14 02:06:11;;;;;;;11.02;1.40;;;12.20;99.90;;;;;;4781621;30;20524;-90
2022/05/14 02:08:39;;;;;;;6.47;1.48;;;12.20;99.90;;;;;;4777669;30;20155;-90
2022/05/14 02:11:08;;;;;;;7.40;1.75;;;12.10;99.90;;;;;;4777530;30;20581;-90
2022/05/14 02:13:35;;;;;;;4.50;1.20;;;12.10;99.90;;;;;;4787034;29;20059;-90
2022/05/14 02:16:00;;;;;;;5.20;1.52;;;12.50;99.90;;;;;;4772783;30;20062;-90
2022/05/14 02:18:27;;;;;;;8.48;2.83;;;12.00;99.90;;;;;;4789928;29;20055;-89
2022/05/14 02:20:53;;;;;;;4.10;1.48;;;12.40;99.90;;;;;;4776228;30;20117;-88
2022/05/14 02:23:19;;;;;;;11.05;1.88;;;12.10;99.90;;;;;;4775428;30;20409;-90
2022/05/14 02:25:45;;;;;;;6.15;1.38;;;11.80;99.90;;;;;;4781793;30;20063;-87
2022/05/14 02:28:13;;;;;;;3.60;1.17;;;11.80;99.90;;;;;;4790980;29;20051;-87
2022/05/14 02:30:39;;;;;;;11.52;1.73;;;12.00;99.90;;;;;;4790459;30;20140;-86
2022/05/14 02:33:05;;;;;;;10.10;2.13;;;11.70;99.90;;;;;;4783191;29;20470;-86
2022/05/14 02:35:31;;;;;;;10.13;1.77;;;12.20;99.90;;;;;;4781232;30;20391;-87
2022/05/14 02:37:57;;;;;;;10.60;1.98;;;11.70;99.90;;;;;;4790180;29;20109;-87
2022/05/14 02:40:23;;;;;;;5.68;1.38;;;11.60;99.90;;;;;;4774606;30;20310;-87
2022/05/14 02:42:49;;;;;;;7.40;2.05;;;12.40;99.90;;;;;;4789929;30;20051;-87
2022/05/14 02:45:15;;;;;;;8.82;2.03;;;11.60;99.90;;;;;;4780456;30;20066;-87
2022/05/14 02:47:41;;;;;;;11.70;2.55;;;11.50;99.90;;;;;;4790215;30;20093;-87
2022/05/14 02:50:09;;;;;;;7.40;2.30;;;12.20;99.90;;;;;;4773595;30;20086;-88
2022/05/14 02:52:35;;;;;;;8.20;2.20;;;11.50;99.90;;;;;;4774202;30;20063;-88
2022/05/14 02:55:01;;;;;;;11.57;1.42;;;11.30;99.90;;;;;;4789954;30;20063;-86
2022/05/14 02:57:30;;;;;;;5.50;1.35;;;11.40;99.90;;;;;;4790175;30;20055;-88
2022/05/14 02:59:56;;;;;;;4.55;1.25;;;11.40;99.90;;;;;;4790538;29;20062;-89
2022/05/14 03:02:24;;;;;;;4.57;1.50;;;11.40;99.90;;;;;;4796798;29;20051;-87
2022/05/14 03:04:50;;;;;;;5.80;1.17;;;11.30;99.90;;;;;;4796472;29;20055;-88
2022/05/14 03:07:19;;;;;;;7.57;2.80;;;11.80;99.90;;;;;;4767066;30;20134;-87
2022/05/14 03:09:45;;;;;;;10.32;2.30;;;11.20;99.90;;;;;;4774880;30;20067;-87
2022/05/14 03:12:13;;;;;;;11.10;2.63;;;12.00;99.90;;;;;;4773865;30;20062;-89
2022/05/14 03:14:42;;;;;;;10.25;1.70;;;11.20;99.90;;;;;;4790144;30;20055;-88
2022/05/14 03:17:11;;;;;;;11.30;3.20;;;11.10;99.90;;;;;;4758775;30;20150;-87
2022/05/14 03:19:39;;;;;;;9.60;2.08;;;11.10;99.90;;;;;;4772926;29;20145;-88
2022/05/14 03:22:07;;;;;;;4.60;1.90;;;11.10;99.90;;;;;;4773503;30;20115;-90
2022/05/14 03:24:36;;;;;;;5.05;1.60;;;11.00;99.90;;;;;;4789493;30;20055;-89
2022/05/14 03:27:03;;;;;;;8.48;1.80;;;11.10;99.90;;;;;;4774179;30;20055;-87
2022/05/14 03:29:29;;;;;;;6.25;1.38;;;11.00;99.90;;;;;;4759123;30;20059;-88
2022/05/14 03:31:57;;;;;;;5.63;1.23;;;11.10;99.90;;;;;;4774900;29;20066;-88
2022/05/14 03:34:24;;;;;;;4.63;1.40;;;11.00;99.90;;;;;;4758801;30;20105;-87
2022/05/14 03:36:50;;;;;;;8.95;2.38;;;10.90;99.90;;;;;;4780220;30;20509;-88
2022/05/14 03:39:16;;;;;;;4.15;1.52;;;11.30;99.90;;;;;;4773049;30;20043;-88
2022/05/14 03:41:49;;;;;;;7.10;1.80;;;10.90;99.90;;;;;;4788020;30;20066;-87
2022/05/14 03:44:18;;;;;;;7.57;2.00;;;10.90;99.90;;;;;;4758764;30;20062;-90
2022/05/14 03:46:44;;;;;;;6.95;1.58;;;10.80;99.90;;;;;;4772754;30;20066;-88
2022/05/14 03:49:12;;;;;;;5.75;1.85;;;11.10;99.90;;;;;;4779689;30;20047;-88
2022/05/14 03:51:38;;;;;;;13.30;3.30;;;11.50;99.90;;;;;;4796102;29;20055;-89
2022/05/14 03:54:04;;;;;;;10.63;2.13;;;10.80;99.90;;;;;;4773241;29;20098;-87
2022/05/14 03:56:31;;;;;;;5.85;1.75;;;10.80;99.90;;;;;;4772948;30;20120;-86
2022/05/14 03:58:57;;;;;;;11.43;2.35;;;10.80;99.90;;;;;;4787493;30;20067;-87
2022/05/14 04:01:30;;;;;;;9.75;2.70;;;10.80;99.90;;;;;;4772910;30;20086;-86
2022/05/14 04:03:56;;;;;;;11.27;2.40;;;11.00;99.90;;;;;;4788682;29;20154;-89
2022/05/14 04:06:22;;;;;;;6.78;1.95;;;10.90;99.90;;;;;;4772707;30;20142;-86
2022/05/14 04:08:51;;;;;;;6.13;1.35;;;10.70;99.90;;;;;;4788696;30;20059;-88
2022/05/14 04:11:19;;;;;;;12.48;2.10;;;10.70;99.90;;;;;;4773064;30;20417;-87
2022/05/14 04:13:45;;;;;;;9.45;1.70;;;11.60;99.90;;;;;;4779266;29;20086;-88
2022/05/14 04:16:11;;;;;;;14.73;2.67;;;10.80;99.90;;;;;;4772843;30;20126;-87
2022/05/14 04:18:37;;;;;;;4.72;1.42;;;11.20;99.90;;;;;;4779187;30;20074;-88
2022/05/14 04:21:04;;;;;;;6.43;1.60;;;10.70;99.90;;;;;;4772290;30;20059;-88
2022/05/14 04:23:31;;;;;;;6.38;1.30;;;11.60;99.90;;;;;;4789119;30;20529;-88
2022/05/14 04:25:59;;;;;;;6.10;1.52;;;10.70;99.90;;;;;;4780942;29;20825;-87
2022/05/14 04:28:25;;;;;;;7.25;1.55;;;10.70;99.90;;;;;;4788791;29;20051;-88
2022/05/14 04:30:52;;;;;;;7.85;1.70;;;10.70;99.90;;;;;;4795636;29;20062;-89
2022/05/14 04:33:18;;;;;;;6.95;1.65;;;10.70;99.90;;;;;;4789401;29;20051;-86
2022/05/14 04:35:45;;;;;;;10.50;2.72;;;10.50;99.90;;;;;;4778757;29;20074;-86
2022/05/14 04:38:11;;;;;;;10.80;1.80;;;10.70;99.90;;;;;;4773425;30;20055;-88
2022/05/14 04:40:38;;;;;;;8.75;1.70;;;11.50;99.90;;;;;;4789391;30;20312;-88
2022/05/14 04:43:08;;;;;;;4.63;1.30;;;10.80;99.90;;;;;;4780404;29;20066;-87
2022/05/14 04:45:34;;;;;;;7.63;1.50;;;10.80;99.90;;;;;;4773408;30;20107;-86
2022/05/14 04:48:00;;;;;;;6.35;1.30;;;10.90;99.90;;;;;;4771761;29;20051;-88
2022/05/14 04:50:29;;;;;;;9.73;1.67;;;10.90;99.90;;;;;;4782862;30;20090;-89
2022/05/14 04:52:55;;;;;;;7.40;1.33;;;10.80;99.90;;;;;;4772632;30;20051;-87
2022/05/14 04:55:20;;;;;;;4.93;1.17;;;10.90;99.90;;;;;;4779166;30;20454;-86
2022/05/14 04:57:46;;;;;;;7.90;1.88;;;11.00;99.90;;;;;;4778849;29;20054;-87
2022/05/14 05:00:14;;;;;;;5.07;1.50;;;11.00;99.90;;;;;;4773106;29;20059;-87
2022/05/14 05:05:29;;;;;;;4.82;1.65;;;11.10;99.90;;;;;;4778919;29;20047;-87
2022/05/14 05:07:56;;;;;;;5.68;2.03;;;11.20;99.90;;;;;;4771716;30;20077;-88
2022/05/14 05:10:22;;;;;;;12.00;2.22;;;11.20;99.90;;;;;;4771752;30;20055;-88
2022/05/14 05:12:48;;;;;;;9.02;2.10;;;11.30;99.90;;;;;;4778632;30;20047;-87
2022/05/14 05:15:14;;;;;;;8.23;2.67;;;11.30;99.90;;;;;;4771789;30;20151;-87
2022/05/14 05:17:40;;;;;;;6.95;1.85;;;11.40;99.90;;;;;;4774073;29;20130;-87
2022/05/14 05:20:07;;;;;;;7.72;1.65;;;11.50;99.90;;;;;;4772000;30;20138;-86
2022/05/14 05:22:32;;;;;;;5.32;1.65;;;11.60;99.90;;;;;;4785581;29;20077;-89
2022/05/14 05:24:58;;;;;;;6.78;2.00;;;11.60;99.90;;;;;;4787839;29;20057;-87
2022/05/14 05:27:24;;;;;;;6.10;1.50;;;11.60;99.90;;;;;;4771537;30;20210;-88
2022/05/14 05:29:50;;;;;;;5.35;1.30;;;11.90;99.90;;;;;;4793899;29;20116;-89
2022/05/14 05:32:16;;;;;;;6.07;1.67;;;12.00;99.90;;;;;;4771383;29;20406;-87
2022/05/14 05:34:42;;;;;;;7.80;2.20;;;12.10;99.90;;;;;;4787269;29;20113;-87
2022/05/14 05:37:08;;;;;;;5.45;1.10;;;13.00;99.90;;;;;;4787540;30;20051;-87
2022/05/14 05:39:34;;;;;;;6.63;1.63;;;12.20;99.90;;;;;;4758676;29;20409;-88
2022/05/14 05:42:00;;;;;;;9.82;2.17;;;12.30;99.90;;;;;;4757124;30;20051;-87
2022/05/14 05:44:26;;;;;;;7.65;1.80;;;12.30;99.90;;;;;;4770775;30;20071;-88
2022/05/14 05:46:55;;;;;;;10.60;2.45;;;12.40;99.90;;;;;;4755306;30;20063;-88
2022/05/14 05:49:24;;;;;;;7.03;1.25;;;12.30;99.90;;;;;;4772091;30;20054;-89
2022/05/14 05:51:49;;;;;;;7.90;1.60;;;12.40;99.90;;;;;;4793743;29;20098;-87
2022/05/14 05:57:00;;;;;;;4.63;1.23;;;12.60;99.90;;;;;;4781233;29;20501;-87
2022/05/14 05:59:31;;;;;;;9.30;1.55;;;13.00;99.90;;;;;;4786958;30;20052;-85
2022/05/14 06:01:57;;;;;;;4.00;1.52;;;12.90;99.90;;;;;;4787075;29;20532;-87
2022/05/14 06:04:26;;;;;;;4.25;1.15;;;13.10;99.90;;;;;;4777767;29;20059;-86
2022/05/14 06:06:51;;;;;;;7.07;2.22;;;13.30;99.90;;;;;;4770627;30;20498;-87
2022/05/14 06:09:21;;;;;;;5.03;1.25;;;13.50;99.90;;;;;;4785960;30;20096;-87
2022/05/14 06:11:47;;;;;;;9.07;2.05;;;13.60;99.90;;;;;;4770812;30;20067;-87
2022/05/14 06:14:13;;;;;;;9.63;1.88;;;14.10;99.90;;;;;;4770469;30;20119;-86
2022/05/14 06:16:40;;;;;;;6.88;1.70;;;13.80;99.90;;;;;;4770502;30;20067;-87
2022/05/14 06:19:06;;;;;;;7.72;1.48;;;13.80;99.90;;;;;;4770608;30;20146;-87
2022/05/14 06:21:33;;;;;;;12.73;2.25;;;13.90;99.90;;;;;;4778035;30;20051;-87
2022/05/14 06:23:59;;;;;;;7.53;2.20;;;14.00;99.90;;;;;;4764326;30;20594;-87
2022/05/14 06:26:30;;;;;;;5.05;1.90;;;14.20;99.90;;;;;;4787825;29;20112;-87
2022/05/14 06:28:56;;;;;;;5.28;1.35;;;14.00;99.90;;;;;;4777598;30;20065;-88
2022/05/14 06:31:22;;;;;;;4.95;1.33;;;14.30;99.90;;;;;;4770734;30;20137;-87
2022/05/14 06:37:29;;;;;;;12.02;2.05;;;14.60;99.90;;;;;;4783210;30;20062;-87
2022/05/14 06:40:09;;;;;;;9.10;2.00;;;15.20;99.90;;;;;;4777708;29;20098;-91
2022/05/14 06:42:36;;;;;;;10.18;2.72;;;14.80;99.90;;;;;;4769668;30;20051;-89
2022/05/14 06:45:03;;;;;;;9.77;1.50;;;15.00;99.90;;;;;;4789431;29;20124;-88
2022/05/14 06:47:29;;;;;;;14.13;2.70;;;15.10;99.90;;;;;;4772362;29;20059;-89
2022/05/14 06:49:55;;;;;;;9.27;2.08;;;15.30;99.90;;;;;;4755756;30;20059;-87
2022/05/14 06:52:21;;;;;;;12.45;1.77;;;15.40;99.90;;;;;;4772423;30;20047;-88
2022/05/14 06:54:49;;;;;;;10.85;1.95;;;15.70;99.90;;;;;;4774178;30;20059;-88
2022/05/14 06:57:15;;;;;;;16.23;2.45;;;15.30;99.90;;;;;;4778462;29;20092;-89
2022/05/14 06:59:41;;;;;;;9.13;1.90;;;15.90;99.90;;;;;;4774067;30;20098;-88
2022/05/14 07:02:10;;;;;;;12.68;2.58;;;16.00;99.90;;;;;;4758698;29;20065;-89
2022/05/14 07:07:20;;;;;;;11.77;2.15;;;16.10;99.90;;;;;;4790374;29;20189;-91
2022/05/14 07:09:49;;;;;;;14.55;2.30;;;16.20;99.90;;;;;;4774024;30;20079;-93
2022/05/14 07:12:15;;;;;;;9.30;1.90;;;16.40;99.90;;;;;;4774418;30;20051;-92
2022/05/14 07:14:43;;;;;;;14.23;1.67;;;16.40;99.90;;;;;;4773467;30;20130;-91
2022/05/14 07:17:09;;;;;;;6.40;1.30;;;16.50;99.90;;;;;;4773573;30;20127;-91
2022/05/14 07:19:36;;;;;;;12.05;1.50;;;16.50;99.90;;;;;;4796896;29;20063;-90
2022/05/14 07:22:06;;;;;;;12.45;2.10;;;16.70;99.90;;;;;;4774982;30;20059;-91
2022/05/14 07:24:32;;;;;;;6.32;1.70;;;16.90;99.90;;;;;;4775021;30;20057;-93
2022/05/14 07:27:00;;;;;;;5.07;1.02;;;16.90;99.90;;;;;;4790760;29;20489;-91
2022/05/14 07:29:27;;;;;;;6.13;0.95;;;16.90;99.90;;;;;;4781019;30;20051;-92
2022/05/14 07:31:54;;;;;;;13.30;1.20;;;17.00;99.90;;;;;;4774060;30;20228;-92
2022/05/14 07:38:03;;;;;;;4.05;0.90;;;17.20;99.90;;;;;;4789683;29;20491;-90
2022/05/14 07:40:33;;;;;;;4.80;0.90;;;17.30;99.90;;;;;;4788278;30;20055;-89
2022/05/14 07:43:03;;;;;;;8.43;1.05;;;17.50;99.90;;;;;;4783329;30;20100;-89
2022/05/14 07:45:33;;;;;;;11.63;1.88;;;17.60;99.90;;;;;;4790851;29;20414;-91
2022/05/14 07:48:03;;;;;;;6.07;0.93;;;17.90;99.90;;;;;;4783655;30;20128;-90
2022/05/14 07:50:30;;;;;;;8.57;1.33;;;18.00;99.90;;;;;;4796195;29;20058;-91
2022/05/14 07:52:58;;;;;;;9.13;1.73;;;18.20;99.90;;;;;;4773711;30;20059;-86
2022/05/14 07:55:24;;;;;;;6.50;1.10;;;18.20;99.90;;;;;;4789513;30;20101;-85
2022/05/14 07:57:50;;;;;;;8.45;1.60;;;18.30;99.90;;;;;;4789537;30;20083;-84
2022/05/14 08:00:18;;;;;;;9.20;1.20;;;18.50;99.90;;;;;;4799447;30;20047;-95
2022/05/14 08:02:46;;;;;;;8.00;1.30;;;18.50;99.90;;;;;;4781568;30;20062;-95
2022/05/14 08:05:21;;;;;;;7.30;0.98;;;18.70;99.90;;;;;;4777797;30;20054;-92
2022/05/14 08:07:50;;;;;;;7.60;2.05;;;18.70;99.90;;;;;;4804221;24;20059;-94
2022/05/14 08:10:20;;;;;;;4.00;1.15;;;18.90;99.90;;;;;;4821078;29;20049;-92
2022/05/14 08:12:50;;;;;;;11.18;1.23;;;19.00;99.90;;;;;;4792200;29;20096;-95
2022/05/14 08:15:17;;;;;;;11.20;1.70;;;18.90;99.90;;;;;;4788444;30;20059;-95
2022/05/14 08:17:44;;;;;;;8.77;1.83;;;19.30;99.90;;;;;;4783708;30;20079;-93
2022/05/14 08:20:13;;;;;;;7.68;1.17;;;19.40;99.90;;;;;;4785152;30;20091;-91
2022/05/14 08:28:52;;;;;;;8.75;1.33;;;19.30;99.90;;;;;;4729367;30;20059;-92
2022/05/14 08:31:18;;;;;;;10.45;1.52;;;19.60;99.90;;;;;;4735541;30;20102;-91
2022/05/14 08:33:44;;;;;;;6.20;1.33;;;19.70;99.90;;;;;;4735284;30;20226;-89
2022/05/14 08:36:09;;;;;;;8.85;1.35;;;19.60;99.80;;;;;;4734867;30;20101;-90
2022/05/14 08:38:37;;;;;;;8.55;1.60;;;19.40;99.90;;;;;;4718858;30;20057;-92
2022/05/14 08:41:06;;;;;;;16.90;1.90;;;19.30;99.90;;;;;;4712250;30;20065;-89
2022/05/14 08:43:52;;;;;;;9.85;2.00;;;19.20;99.90;;;;;;4732795;30;20551;-90
2022/05/14 08:46:19;;;;;;;;;;;19.20;99.90;;;;;;4704526;30;20061;-90
2022/05/14 08:48:50;;;;;;;11.45;1.70;;;19.40;99.90;;;;;;4718851;30;19930;-91
2022/05/14 08:51:23;;;;;;;5.53;1.15;;;19.30;99.90;;;;;;4724671;30;20056;-90
2022/05/14 08:53:50;;;;;;;7.30;1.30;;;19.40;99.90;;;;;;4718567;30;20519;-86
2022/05/14 09:00:11;;;;;;;6.85;1.23;;;19.90;99.80;;;;;;5089701;24;20062;-89
2022/05/14 09:02:40;;;;;;;5.30;1.00;;;19.90;99.90;;;;;;4778747;30;20413;-88
2022/05/14 09:05:13;;;;;;;8.48;1.67;;;20.00;99.90;;;;;;4756806;30;20059;-90
2022/05/14 09:07:40;;;;;;;9.13;2.13;;;20.10;99.90;;;;;;4789327;29;20078;-88
2022/05/14 09:10:09;;;;;;;4.18;1.13;;;20.40;98.50;;;;;;4757150;30;20062;-89
2022/05/14 09:12:53;;;;;;;9.32;1.67;;;20.40;99.90;;;;;;4787928;30;20059;-90
2022/05/14 09:15:21;;;;;;;7.78;1.17;;;20.70;98.40;;;;;;4765571;30;20047;-92
2022/05/14 09:17:48;;;;;;;6.45;1.30;;;20.60;98.30;;;;;;4788994;30;20091;-91
2022/05/14 09:20:23;;;;;;;10.32;1.52;;;20.70;97.50;;;;;;4795285;29;20066;-93
2022/05/14 09:22:54;;;;;;;6.05;1.38;;;20.80;99.40;;;;;;4773063;30;20059;-91
2022/05/14 09:25:27;;;;;;;8.13;1.52;;;20.90;98.00;;;;;;4766097;30;20055;-94
2022/05/14 09:27:58;;;;;;;9.20;1.70;;;21.00;97.90;;;;;;4788195;30;20076;-90
2022/05/14 09:30:43;;;;;;;8.63;1.90;;;21.10;97.20;;;;;;4765905;30;20055;-92
2022/05/14 09:33:27;;;;;;;10.07;1.95;;;20.90;99.50;;;;;;4773160;29;20132;-91
2022/05/14 09:35:58;;;;;;;7.47;1.20;;;21.10;98.50;;;;;;4798852;29;20408;-92
2022/05/14 09:38:25;;;;;;;9.30;1.70;;;21.00;97.40;;;;;;4765542;30;20757;-92
2022/05/14 09:40:52;;;;;;;6.70;1.20;;;21.20;98.70;;;;;;4772956;30;20117;-93
2022/05/14 09:43:18;;;;;;;8.25;1.67;;;21.40;95.40;;;;;;4778790;30;20124;-93
2022/05/14 09:46:00;;;;;;;8.30;1.58;;;21.00;96.50;;;;;;4788020;29;20138;-88
2022/05/14 09:48:31;;;;;;;12.88;1.95;;;20.70;96.60;;;;;;4776377;30;20086;-93
2022/05/14 09:51:00;;;;;;;5.22;1.00;;;20.70;96.90;;;;;;4771743;30;20150;-84
2022/05/14 09:53:34;;;;;;;12.32;1.67;;;20.50;98.30;;;;;;4771075;30;20055;-87
2022/05/14 09:56:24;;;;;;;6.53;1.33;;;20.50;99.30;;;;;;4787176;30;20086;-87
2022/05/14 09:59:15;;;;;;;7.05;1.30;;;20.70;99.90;;;;;;4782900;29;20055;-86
2022/05/14 10:01:49;;;;;;;9.20;1.30;;;21.20;97.30;;;;;;4781873;30;20059;-86
2022/05/14 10:04:43;;;;;;;10.60;1.70;;;21.00;95.50;;;;;;4793369;29;20166;-85
2022/05/14 10:07:18;;;;;;;8.10;1.67;;;21.10;94.80;;;;;;4786537;30;20103;-86
2022/05/14 10:09:58;;;;;;;;;;;21.10;97.00;;;;;;4787636;30;20067;-86
2022/05/14 10:12:32;;;;;;;7.25;1.33;;;21.20;97.30;;;;;;4789208;29;19934;-86
2022/05/14 10:15:20;;;;;;;7.63;1.40;;;21.20;96.10;;;;;;4796549;29;20055;-86
2022/05/14 10:18:25;;;;;;;9.35;1.70;;;21.40;96.00;;;;;;4781707;30;20063;-86
2022/05/14 10:21:23;;;;;;;10.23;1.77;;;21.60;96.50;;;;;;4782459;30;20082;-86
2022/05/14 10:27:06;;;;;;;9.05;1.48;;;21.60;96.80;;;;;;4714602;30;20056;-86
2022/05/14 10:29:54;;;;;;;13.18;2.20;;;21.80;96.00;;;;;;4735345;30;20052;-86
2022/05/14 10:32:20;;;;;;;5.82;1.20;;;21.80;91.50;;;;;;4720676;30;20125;-83
2022/05/14 10:34:57;;;;;;;6.63;1.30;;;21.70;93.40;;;;;;4734202;30;20056;-86
2022/05/14 10:37:51;;;;;;;8.63;1.35;;;21.50;95.60;;;;;;4735273;30;20068;-86
2022/05/14 10:40:24;;;;;;;6.95;1.50;;;21.50;94.20;;;;;;4668580;30;20386;-84
2022/05/14 10:42:52;;;;;;;8.82;1.75;;;21.80;91.40;;;;;;4682744;30;20121;-87
2022/05/14 10:45:30;;;;;;;5.05;1.20;;;21.70;94.20;;;;;;4683442;30;20060;-85
2022/05/14 10:48:19;;;;;;;12.88;1.80;;;21.60;94.20;;;;;;4669596;30;20120;-84
2022/05/14 10:50:47;;;;;;;7.50;1.90;;;21.80;92.30;;;;;;4689678;30;20065;-88
2022/05/14 10:53:13;;;;;;;6.60;1.20;;;21.70;93.40;;;;;;4668342;30;20054;-87
2022/05/14 10:56:07;;;;;;;8.07;2.10;;;21.80;94.60;;;;;;4667897;30;20552;-90
2022/05/14 10:58:58;;;;;;;5.63;1.33;;;22.20;93.60;;;;;;4665946;30;20097;-87
2022/05/14 11:01:46;;;;;;;7.85;1.85;;;22.30;93.10;;;;;;4723811;30;20521;-87
2022/05/14 11:04:23;;;;;;;11.43;1.40;;;22.70;88.50;;;;;;4704429;30;20053;-87
2022/05/14 11:06:55;;;;;;;11.10;2.05;;;22.70;91.40;;;;;;4711882;30;20069;-87
2022/05/14 11:09:38;;;;;;;7.55;1.48;;;22.80;85.80;;;;;;4712524;30;20135;-88
2022/05/14 11:12:15;;;;;;;6.88;1.70;;;22.70;86.50;;;;;;4727028;30;20052;-87
2022/05/14 11:14:44;;;;;;;8.10;1.30;;;22.90;88.80;;;;;;4723015;30;20472;-87
2022/05/14 11:17:26;;;;;;;7.82;1.88;;;23.10;89.90;;;;;;4727996;30;20053;-87
2022/05/14 11:20:04;;;;;;;11.02;2.10;;;23.30;90.20;;;;;;4781057;29;20397;-87
2022/05/14 11:22:42;;;;;;;12.05;1.83;;;23.80;80.90;;;;;;4793881;29;20054;-87
2022/05/14 11:25:24;;;;;;;9.52;1.88;;;23.60;84.40;;;;;;4789098;29;20063;-87
2022/05/14 11:27:59;;;;;;;10.80;2.55;;;23.20;81.50;;;;;;4773842;30;20459;-87
2022/05/14 11:30:41;;;;;;;10.40;1.48;;;22.80;81.00;;;;;;4773316;30;20065;-88
2022/05/14 11:33:30;;;;;;;10.63;1.92;;;22.80;86.70;;;;;;4772988;30;20146;-88
2022/05/14 11:36:00;;;;;;;9.50;1.38;;;22.80;83.20;;;;;;4733419;30;20144;-88
2022/05/14 11:38:29;;;;;;;12.18;1.70;;;22.80;84.30;;;;;;4721704;30;20088;-92
2022/05/14 11:40:56;;;;;;;15.52;1.85;;;23.10;81.50;;;;;;4726503;30;20067;-92
2022/05/14 11:43:33;;;;;;;10.15;1.88;;;22.90;80.40;;;;;;4736852;30;20052;-91
2022/05/14 11:46:22;;;;;;;8.85;1.55;;;22.80;82.90;;;;;;4722023;30;20053;-89
2022/05/14 11:48:51;;;;;;;9.50;1.95;;;22.90;82.40;;;;;;4728372;30;20048;-88
2022/05/14 11:51:40;;;;;;;6.63;1.38;;;23.00;79.70;;;;;;4719957;30;20068;-89
2022/05/14 11:54:47;;;;;;;;;;;;;;;;;;;;;
2022/05/14 11:57:34;;;;;;;12.30;2.13;;;22.70;83.00;;;;;;4734064;30;20056;-87
2022/05/14 12:00:32;;;;;;;7.20;1.48;;;23.00;82.10;;;;;;4714653;30;20084;-88
2022/05/14 12:03:19;;;;;;;10.50;1.65;;;22.70;87.50;;;;;;4728345;30;20045;-89
2022/05/14 12:05:50;;;;;;;8.48;1.67;;;23.00;85.60;;;;;;4720305;30;20063;-89
2022/05/14 12:08:36;;;;;;;11.15;1.60;;;23.10;83.50;;;;;;4722773;30;20065;-90
2022/05/14 12:11:33;;;;;;;12.85;1.95;;;23.10;82.10;;;;;;4719645;30;20067;-87
2022/05/14 12:14:16;;;;;;;14.07;3.00;;;23.10;83.00;;;;;;4768988;29;20063;-85
2022/05/14 12:16:53;;;;;;;10.27;1.70;;;23.20;80.70;;;;;;4791772;29;20480;-86
2022/05/14 12:19:22;;;;;;;9.50;1.55;;;23.30;80.10;;;;;;4782952;30;20047;-88
2022/05/14 12:21:57;;;;;;;10.98;2.15;;;23.20;88.20;;;;;;4773349;30;20100;-87
2022/05/14 12:24:32;;;;;;;10.10;2.03;;;23.00;84.50;;;;;;4767485;30;20062;-87
2022/05/14 12:26:58;;;;;;;14.43;2.83;;;23.00;81.10;;;;;;4772662;29;20055;-87
2022/05/14 12:29:25;;;;;;;14.77;2.10;;;22.90;84.80;;;;;;4795026;29;20051;-87
2022/05/14 12:34:46;;;;;;;11.90;1.65;;;22.80;85.50;;;;;;4794921;29;20140;-87
2022/05/14 12:37:39;;;;;;;9.50;2.08;;;22.50;88.50;;;;;;4795340;29;20051;-88
2022/05/14 12:40:06;;;;;;;10.63;2.30;;;22.80;89.70;;;;;;4788293;30;20058;-87
2022/05/14 12:42:34;;;;;;;6.82;1.05;;;23.10;86.40;;;;;;4796254;29;20401;-88
2022/05/14 12:45:01;;;;;;;11.18;1.80;;;23.30;88.00;;;;;;4788173;30;20063;-87
2022/05/14 12:47:29;;;;;;;12.95;2.22;;;23.20;83.50;;;;;;4795079;29;20052;-87
2022/05/14 12:49:55;;;;;;;11.32;2.03;;;23.30;84.30;;;;;;4788094;29;20093;-88
2022/05/14 12:52:31;;;;;;;7.20;1.60;;;23.40;85.30;;;;;;4787856;30;20059;-86
2022/05/14 12:55:00;;;;;;;11.80;1.77;;;23.20;85.30;;;;;;4787875;30;20055;-88
2022/05/14 12:57:27;;;;;;;13.18;2.22;;;23.00;83.10;;;;;;4778446;29;20493;-88
2022/05/14 12:59:54;;;;;;;13.27;2.10;;;22.80;86.60;;;;;;4787526;29;20116;-88
2022/05/14 13:02:25;;;;;;;10.07;1.65;;;23.10;88.00;;;;;;4787911;30;20054;-88
2022/05/14 13:04:57;;;;;;;10.15;1.95;;;23.20;88.10;;;;;;4787596;30;20051;-88
2022/05/14 13:07:23;;;;;;;13.82;2.38;;;23.30;89.00;;;;;;4788115;29;20047;-87
2022/05/14 13:09:51;;;;;;;11.50;1.80;;;23.30;84.40;;;;;;4787478;30;20131;-89
2022/05/14 13:12:20;;;;;;;13.38;2.55;;;23.40;83.60;;;;;;4787457;30;20066;-87
2022/05/14 13:14:56;;;;;;;9.05;2.35;;;23.40;81.90;;;;;;4787268;30;20518;-87
2022/05/14 13:17:30;;;;;;;12.05;2.42;;;23.20;82.90;;;;;;4788097;29;20126;-88
2022/05/14 13:19:57;;;;;;;16.48;2.05;;;22.70;83.20;;;;;;4787263;30;20120;-88
2022/05/14 13:22:40;;;;;;;9.93;1.50;;;22.70;85.80;;;;;;4771553;30;20050;-87
2022/05/14 13:25:26;;;;;;;11.80;2.10;;;22.40;88.70;;;;;;4787147;30;20444;-88
2022/05/14 13:27:52;;;;;;;12.30;2.00;;;22.20;86.20;;;;;;4787613;29;20094;-87
2022/05/14 13:30:30;;;;;;;12.95;2.10;;;22.10;88.60;;;;;;4778079;30;20081;-86
2022/05/14 13:33:11;;;;;;;11.52;2.00;;;22.00;87.40;;;;;;4771195;30;20098;-88
2022/05/14 13:38:37;;;;;;;13.45;2.38;;;22.60;84.70;;;;;;4771570;30;20063;-88
2022/05/14 13:41:07;;;;;;;12.63;2.10;;;22.70;82.20;;;;;;4771358;30;20424;-86
2022/05/14 13:43:36;;;;;;;7.50;1.45;;;22.70;82.00;;;;;;4778639;30;20093;-88